Fort Lauderdale Hollywood International Airport

Date: 2024-06-11 12:39:00Z

Type: SPECI

Weather: Thunderstorms, Gusty Winds

Winds: 270° at 8 kts, Gusting to 20 kts

Visibility: 4

Ceiling (AGL FT): Clouds BROKEN at 1500, BROKEN at 2100, OVERCAST at 5000, OVERCAST at 3000

RAW METAR: KFLL 111239Z 27008G20KT 4SM R10L/1800VP6000FT TSRA BR BKN015 BKN021CB OVC050 26/24 A2991 RMK AO2 RAB22 TSB21 VIS NW-NE 2 OCNL LTGICCG ALQDS TS ALQDS MOV NE P0063 T02560244

project-image